Time;durP1;ratioP1;P1;durP2;ratioP2;P2;SDS_P1;SDS_P2;PMS_P1;PMS_P2;Temp;Humidity;BMP_temperature;BMP_pressure;BME280_temperature;BME280_humidity;BME280_pressure;Samples;Min_cycle;Max_cycle;Signal;HPM_P1;HPM_P2
2023/04/11 00:02:14;;;;;;;21.55;5.63;;;;;;;11.04;100.00;100701.41;6095756;23;20133;-75
2023/04/11 00:04:40;;;;;;;25.75;5.75;;;;;;;11.01;100.00;100717.66;6069513;23;20014;-74
2023/04/11 00:07:06;;;;;;;27.73;5.75;;;;;;;10.93;100.00;100707.47;6099241;23;20453;-74
2023/04/11 00:09:32;;;;;;;21.48;5.45;;;;;;;10.91;100.00;100701.41;6097648;23;20176;-75
2023/04/11 00:12:01;;;;;;;28.58;7.03;;;;;;;10.83;100.00;100701.91;6096447;23;20017;-75
2023/04/11 00:14:27;;;;;;;22.30;6.07;;;;;;;10.79;100.00;100711.09;6097176;23;20704;-74
2023/04/11 00:16:53;;;;;;;28.13;6.85;;;;;;;10.83;100.00;100703.72;6098855;23;20010;-74
2023/04/11 00:19:24;;;;;;;28.02;6.25;;;;;;;10.92;100.00;100705.78;6097840;23;20010;-74
2023/04/11 00:21:50;;;;;;;23.08;6.43;;;;;;;10.93;100.00;100707.47;6099480;23;20085;-74
2023/04/11 00:24:19;;;;;;;32.83;5.18;;;;;;;10.79;100.00;100707.53;6098922;23;20013;-74
2023/04/11 00:26:44;;;;;;;27.83;6.75;;;;;;;10.92;100.00;100711.13;6099607;23;20013;-74
2023/04/11 00:29:10;;;;;;;31.25;5.55;;;;;;;10.78;100.00;100712.03;6099170;23;20017;-74
2023/04/11 00:31:35;;;;;;;35.70;7.75;;;;;;;10.74;100.00;100707.84;6095913;23;20044;-74
2023/04/11 00:34:01;;;;;;;19.25;5.85;;;;;;;10.74;100.00;100704.31;6098733;23;20761;-74
2023/04/11 00:36:26;;;;;;;35.20;6.07;;;;;;;10.62;100.00;100711.34;6072192;23;20088;-74
2023/04/11 00:38:53;;;;;;;21.33;5.93;;;;;;;10.68;100.00;100713.59;6098956;23;20025;-74
2023/04/11 00:41:19;;;;;;;28.17;5.90;;;;;;;10.61;100.00;100715.81;6096452;23;20014;-74
2023/04/11 00:43:46;;;;;;;21.05;5.80;;;;;;;10.59;100.00;100717.75;6070863;23;20803;-74
2023/04/11 00:46:12;;;;;;;28.00;5.50;;;;;;;10.47;100.00;100717.66;6095139;23;20025;-75
2023/04/11 00:48:38;;;;;;;22.50;6.18;;;;;;;10.59;100.00;100722.19;6069998;23;20020;-75
2023/04/11 00:51:10;;;;;;;26.75;5.93;;;;;;;10.47;100.00;100723.84;6072353;23;20398;-74
2023/04/11 00:53:36;;;;;;;25.67;6.47;;;;;;;10.46;100.00;100721.28;6096757;23;20392;-75
2023/04/11 00:56:02;;;;;;;23.67;5.32;;;;;;;10.54;100.00;100717.19;6095747;23;20104;-74
2023/04/11 00:58:28;;;;;;;24.55;6.55;;;;;;;10.38;100.00;100721.78;6093753;23;20539;-75
2023/04/11 01:00:54;;;;;;;33.22;6.35;;;;;;;10.34;100.00;100717.59;6061470;23;20077;-75
2023/04/11 01:03:20;;;;;;;20.70;5.47;;;;;;;10.26;100.00;100728.75;6066124;23;20591;-75
2023/04/11 01:05:48;;;;;;;26.90;5.30;;;;;;;10.34;100.00;100726.47;6064010;23;20022;-75
2023/04/11 01:08:15;;;;;;;36.30;6.22;;;;;;;10.18;100.00;100731.00;6063182;23;20077;-74
2023/04/11 01:10:41;;;;;;;31.60;5.28;;;;;;;10.22;100.00;100724.53;6066464;23;20014;-75
2023/04/11 01:13:11;;;;;;;30.00;5.95;;;;;;;10.10;100.00;100726.19;6068462;23;20049;-75
2023/04/11 01:15:37;;;;;;;26.27;5.05;;;;;;;10.15;100.00;100722.38;6064002;23;20082;-76
2023/04/11 01:18:18;;;;;;;21.63;5.97;;;;;;;10.06;100.00;100726.47;6067328;23;20706;-74
2023/04/11 01:20:44;;;;;;;26.13;6.18;;;;;;;9.97;100.00;100727.06;6065486;23;20014;-75
2023/04/11 01:23:13;;;;;;;27.65;5.22;;;;;;;10.03;100.00;100721.34;6064545;23;20010;-75
2023/04/11 01:25:40;;;;;;;32.58;7.43;;;;;;;9.94;100.00;100714.78;6068153;23;20014;-75
2023/04/11 01:28:07;;;;;;;34.80;5.75;;;;;;;10.05;100.00;100727.44;6066770;23;20066;-75
2023/04/11 01:30:36;;;;;;;40.55;5.75;;;;;;;9.86;100.00;100728.56;6065477;23;20098;-74
2023/04/11 01:33:02;;;;;;;47.30;6.88;;;;;;;9.92;100.00;100723.81;6067980;23;20101;-73
2023/04/11 01:35:27;;;;;;;35.10;6.05;;;;;;;9.96;100.00;100726.19;6066085;23;20729;-74
2023/04/11 01:37:53;;;;;;;37.13;5.82;;;;;;;9.86;100.00;100727.72;6068910;23;20528;-76
2023/04/11 01:40:21;;;;;;;47.25;6.35;;;;;;;9.78;100.00;100722.00;6065692;23;20018;-75
2023/04/11 01:42:48;;;;;;;38.92;6.22;;;;;;;9.85;100.00;100732.19;6068813;23;20014;-75
2023/04/11 01:45:14;;;;;;;43.33;6.50;;;;;;;9.77;100.00;100721.16;6042297;23;20148;-74
2023/04/11 01:47:41;;;;;;;36.00;5.55;;;;;;;9.80;100.00;100720.13;6068149;23;20026;-74
2023/04/11 01:50:07;;;;;;;30.35;7.10;;;;;;;9.78;100.00;100722.84;6066422;23;20872;-75
2023/04/11 01:52:33;;;;;;;34.17;5.85;;;;;;;9.68;100.00;100727.03;6069198;23;20314;-75
2023/04/11 01:54:58;;;;;;;30.38;6.63;;;;;;;9.68;100.00;100723.53;6073882;23;20025;-74
2023/04/11 01:57:24;;;;;;;31.00;5.43;;;;;;;9.68;100.00;100723.53;6067509;23;20647;-74
2023/04/11 01:59:50;;;;;;;31.85;6.32;;;;;;;9.63;100.00;100725.63;6064514;23;20043;-74
2023/04/11 02:02:16;;;;;;;43.58;7.18;;;;;;;9.61;100.00;100731.03;6040772;23;20034;-75
2023/04/11 02:04:42;;;;;;;31.08;4.53;;;;;;;9.60;100.00;100730.19;6065161;23;20014;-74
2023/04/11 02:07:11;;;;;;;25.40;5.20;;;;;;;9.52;100.00;100735.13;6062825;23;20285;-74
2023/04/11 02:09:36;;;;;;;37.75;5.50;;;;;;;9.51;100.00;100737.88;6065132;23;20454;-75
2023/04/11 02:12:02;;;;;;;34.92;6.38;;;;;;;9.47;100.00;100726.56;6066525;23;20018;-74
2023/04/11 02:14:46;;;;;;;29.17;6.25;;;;;;;9.47;100.00;100731.88;6063669;23;20217;-76
2023/04/11 02:17:12;;;;;;;36.08;5.22;;;;;;;9.50;100.00;100734.38;6066169;23;20029;-73
2023/04/11 02:19:44;;;;;;;22.27;5.00;;;;;;;9.56;100.00;100733.97;6064362;23;20018;-74
2023/04/11 02:22:11;;;;;;;33.50;6.45;;;;;;;9.31;100.00;100736.41;6061672;23;20124;-74
2023/04/11 02:24:38;;;;;;;42.17;6.05;;;;;;;9.27;100.00;100741.06;6065488;23;20037;-74
2023/04/11 02:27:07;;;;;;;36.55;6.07;;;;;;;9.49;100.00;100753.09;6067712;23;20014;-75
2023/04/11 02:29:34;;;;;;;30.83;5.20;;;;;;;9.31;100.00;100752.38;6062690;23;20022;-74
2023/04/11 02:32:00;;;;;;;36.58;6.22;;;;;;;9.39;100.00;100752.78;6065848;23;20293;-74
2023/04/11 02:34:26;;;;;;;27.02;5.50;;;;;;;9.32;100.00;100749.63;6063515;23;20018;-75
2023/04/11 02:36:51;;;;;;;39.40;6.05;;;;;;;9.28;100.00;100736.59;6064335;23;20011;-75
2023/04/11 02:39:22;;;;;;;36.20;5.28;;;;;;;9.36;100.00;100741.47;6066089;23;20242;-75
2023/04/11 02:41:50;;;;;;;51.35;6.72;;;;;;;9.30;100.00;100740.03;6066646;23;20014;-75
2023/04/11 02:44:18;;;;;;;36.60;5.10;;;;;;;9.30;100.00;100754.19;6065609;23;20018;-75
2023/04/11 02:46:44;;;;;;;41.75;5.50;;;;;;;9.18;100.00;100752.25;6063218;23;20018;-74
2023/04/11 02:49:10;;;;;;;35.78;5.03;;;;;;;9.25;100.00;100756.28;6065849;23;20022;-73
2023/04/11 02:51:36;;;;;;;26.40;4.55;;;;;;;9.26;100.00;100762.44;6065439;23;20116;-74
2023/04/11 02:54:02;;;;;;;37.08;7.63;;;;;;;9.33;100.00;100758.47;6063649;23;20722;-75
2023/04/11 02:56:29;;;;;;;43.13;5.05;;;;;;;9.40;100.00;100769.63;6073818;23;20022;-74
2023/04/11 02:58:55;;;;;;;35.97;5.65;;;;;;;9.40;100.00;100770.47;6076259;23;20203;-74
2023/04/11 03:01:26;;;;;;;43.30;6.13;;;;;;;9.49;100.00;100769.06;6062907;23;20022;-74
2023/04/11 03:03:53;;;;;;;49.10;6.95;;;;;;;9.56;100.00;100781.91;6071089;23;20730;-73
2023/04/11 03:06:22;;;;;;;19.48;3.17;;;;;;;8.50;100.00;100797.81;6075245;23;20034;-73
2023/04/11 03:09:10;;;;;;;19.25;5.70;;;;;;;8.35;100.00;100780.03;6074101;23;20123;-74
2023/04/11 03:11:36;;;;;;;11.48;3.00;;;;;;;8.39;100.00;100778.94;6077831;23;20065;-73
2023/04/11 03:14:02;;;;;;;12.18;3.17;;;;;;;8.45;100.00;100783.91;6068870;23;20075;-74
2023/04/11 03:16:28;;;;;;;19.63;3.30;;;;;;;8.43;100.00;100791.09;6063215;23;20378;-73
2023/04/11 03:18:53;;;;;;;15.73;3.53;;;;;;;8.43;100.00;100764.53;6064159;23;20022;-74
2023/04/11 03:21:19;;;;;;;20.77;3.85;;;;;;;8.39;100.00;100772.78;6063838;23;20613;-74
2023/04/11 03:23:45;;;;;;;30.45;4.40;;;;;;;8.60;100.00;100778.69;6066365;23;20014;-74
2023/04/11 03:26:13;;;;;;;28.35;5.18;;;;;;;8.78;100.00;100785.59;6066423;23;20018;-73
2023/04/11 03:28:40;;;;;;;30.25;5.50;;;;;;;8.81;100.00;100783.63;6064100;23;20034;-74
2023/04/11 03:31:06;;;;;;;33.22;4.97;;;;;;;9.01;100.00;100793.13;6064606;23;20128;-75
2023/04/11 03:33:31;;;;;;;33.45;6.07;;;;;;;9.00;100.00;100783.44;6068630;23;20017;-75
2023/04/11 03:35:57;;;;;;;24.48;5.75;;;;;;;9.04;100.00;100792.97;6066057;23;20014;-75
2023/04/11 03:38:24;;;;;;;29.65;5.72;;;;;;;9.11;100.00;100788.13;6064091;23;20867;-74
2023/04/11 03:40:50;;;;;;;26.77;4.85;;;;;;;9.19;100.00;100782.38;6065629;23;20014;-74
2023/04/11 03:43:19;;;;;;;46.55;6.90;;;;;;;9.16;100.00;100779.91;6063894;23;20345;-75
2023/04/11 03:45:45;;;;;;;39.67;5.45;;;;;;;8.96;100.00;100787.22;6062441;23;20021;-74
2023/04/11 03:48:28;;;;;;;28.50;5.18;;;;;;;8.95;100.00;100793.50;6063111;23;20050;-74
2023/04/11 03:50:58;;;;;;;36.22;5.28;;;;;;;8.95;100.00;100792.63;6063680;23;20838;-74
2023/04/11 03:53:32;;;;;;;36.10;6.07;;;;;;;8.91;100.00;100793.75;6065289;23;20014;-75
2023/04/11 03:56:10;;;;;;;17.02;3.90;;;;;;;8.89;100.00;100793.00;6062517;23;20287;-75
2023/04/11 03:58:40;;;;;;;37.10;5.75;;;;;;;8.81;100.00;100809.38;6061831;23;20105;-74
2023/04/11 04:01:06;;;;;;;27.25;4.03;;;;;;;8.77;100.00;100813.13;6063077;23;20413;-74
2023/04/11 04:03:31;;;;;;;27.33;3.85;;;;;;;8.86;100.00;100817.94;6063367;23;20105;-75
2023/04/11 04:05:58;;;;;;;30.33;4.20;;;;;;;8.83;100.00;100818.09;6064452;23;20022;-75
2023/04/11 04:08:24;;;;;;;15.25;3.08;;;;;;;8.74;100.00;100818.66;6068543;23;20014;-75
2023/04/11 04:10:50;;;;;;;41.05;6.88;;;;;;;8.75;100.00;100821.22;6063966;23;20014;-75
2023/04/11 04:13:17;;;;;;;25.05;4.82;;;;;;;8.88;100.00;100821.34;6061924;23;20042;-75
2023/04/11 04:15:50;;;;;;;23.98;4.15;;;;;;;8.77;100.00;100826.44;6061376;23;20446;-75
2023/04/11 04:18:20;;;;;;;19.88;3.40;;;;;;;8.86;100.00;100822.41;6040268;23;20061;-75
2023/04/11 04:20:48;;;;;;;24.02;5.25;;;;;;;8.98;100.00;100833.19;6064713;23;20026;-75
2023/04/11 04:23:16;;;;;;;21.33;3.55;;;;;;;8.98;100.00;100830.53;6066790;23;20796;-76
2023/04/11 04:26:11;;;;;;;22.20;3.20;;;;;;;8.96;100.00;100829.78;6062087;23;20021;-74
2023/04/11 04:28:39;;;;;;;14.80;3.13;;;;;;;9.01;100.00;100830.38;6063048;23;20034;-75
2023/04/11 04:31:24;;;;;;;13.77;2.53;;;;;;;8.88;100.00;100841.78;6063358;23;20025;-75
2023/04/11 04:33:57;;;;;;;16.25;3.03;;;;;;;8.99;100.00;100834.94;6040608;23;20740;-75
2023/04/11 04:36:28;;;;;;;19.73;2.80;;;;;;;8.94;100.00;100839.66;6034566;23;20626;-75
2023/04/11 04:38:56;;;;;;;18.73;3.42;;;;;;;8.99;100.00;100853.56;6060619;23;20125;-75
2023/04/11 04:41:25;;;;;;;17.02;2.35;;;;;;;8.94;100.00;100857.41;6081587;23;20018;-74
2023/04/11 04:43:57;;;;;;;10.25;2.20;;;;;;;9.08;100.00;100854.81;6062116;23;20638;-75
2023/04/11 04:46:45;;;;;;;25.92;2.70;;;;;;;8.99;100.00;100868.66;6062835;23;20026;-74
2023/04/11 04:49:13;;;;;;;10.73;3.90;;;;;;;8.98;100.00;100858.94;6066033;23;20010;-75
2023/04/11 04:51:39;;;;;;;15.32;2.75;;;;;;;9.12;100.00;100850.19;6062018;23;20018;-75
2023/04/11 04:54:08;;;;;;;19.60;2.78;;;;;;;9.06;100.00;100870.84;6069172;23;20018;-74
2023/04/11 04:56:33;;;;;;;12.80;2.15;;;;;;;9.10;100.00;100854.75;6071769;23;20018;-75
2023/04/11 04:59:00;;;;;;;27.13;3.25;;;;;;;9.13;100.00;100863.38;6062300;23;20104;-75
2023/04/11 05:01:28;;;;;;;16.60;4.32;;;;;;;8.98;100.00;100873.09;6060663;23;20022;-75
2023/04/11 05:03:57;;;;;;;8.88;2.60;;;;;;;9.00;100.00;100881.84;6039070;23;20105;-75
2023/04/11 05:06:33;;;;;;;10.35;2.20;;;;;;;8.97;100.00;100876.69;6062336;23;20069;-75
2023/04/11 05:09:01;;;;;;;22.20;3.25;;;;;;;9.08;100.00;100876.94;6067893;23;20040;-75
2023/04/11 05:11:27;;;;;;;10.90;2.65;;;;;;;9.07;100.00;100885.00;6065663;23;20038;-75
2023/04/11 05:13:54;;;;;;;18.40;2.30;;;;;;;9.02;100.00;100884.41;6064512;23;20081;-75
2023/04/11 05:16:20;;;;;;;15.48;2.50;;;;;;;8.89;100.00;100888.72;6062079;23;20020;-73
2023/04/11 05:18:46;;;;;;;13.48;2.60;;;;;;;9.13;100.00;100882.00;6061814;23;20077;-74
2023/04/11 05:21:15;;;;;;;8.10;2.20;;;;;;;8.95;100.00;100891.03;6068797;23;20018;-73
2023/04/11 05:23:43;;;;;;;14.57;2.45;;;;;;;9.13;100.00;100894.44;6069353;23;20045;-74
2023/04/11 05:26:10;;;;;;;12.70;2.08;;;;;;;9.06;100.00;100904.59;6066671;23;20025;-74
2023/04/11 05:28:36;;;;;;;20.20;3.00;;;;;;;9.15;100.00;100897.91;6065200;23;20117;-73
2023/04/11 05:31:07;;;;;;;16.48;3.33;;;;;;;8.94;100.00;100908.81;6066350;23;20053;-73
2023/04/11 05:33:37;;;;;;;10.20;2.28;;;;;;;9.05;100.00;100911.72;6064611;23;20022;-73
2023/04/11 05:36:06;;;;;;;18.90;2.55;;;;;;;9.03;100.00;100918.91;6041114;23;20021;-74
2023/04/11 05:38:32;;;;;;;12.63;2.10;;;;;;;9.01;100.00;100912.81;6066720;23;20427;-75
2023/04/11 05:40:59;;;;;;;24.27;4.93;;;;;;;9.10;100.00;100929.22;6064811;23;20049;-75
2023/04/11 05:43:25;;;;;;;12.60;2.20;;;;;;;9.20;100.00;100930.41;6064869;23;20010;-74
2023/04/11 05:45:51;;;;;;;13.05;2.38;;;;;;;9.20;100.00;100930.41;6067945;23;20025;-75
2023/04/11 05:48:19;;;;;;;18.52;2.15;;;;;;;9.04;100.00;100936.59;6068242;23;20049;-75
2023/04/11 05:50:46;;;;;;;16.33;2.45;;;;;;;8.79;100.00;100945.06;6067022;23;20536;-74
2023/04/11 05:53:12;;;;;;;12.95;3.22;;;;;;;9.08;100.00;100942.59;6067050;23;20864;-74
2023/04/11 05:55:38;;;;;;;9.23;2.22;;;;;;;9.00;100.00;100958.97;6061671;23;20014;-74
2023/04/11 05:58:03;;;;;;;15.43;2.53;;;;;;;9.23;100.00;100954.19;6077747;23;20014;-76
2023/04/11 06:00:31;;;;;;;23.77;2.90;;;;;;;9.45;100.00;100956.50;6075452;23;20064;-74
2023/04/11 06:03:00;;;;;;;11.35;2.22;;;;;;;9.48;100.00;100962.50;6102931;23;20010;-74
2023/04/11 06:05:30;;;;;;;12.65;3.70;;;;;;;9.47;100.00;100958.13;6093867;23;20050;-74
2023/04/11 06:07:57;;;;;;;11.75;2.38;;;;;;;9.52;100.00;100963.19;6095501;23;20010;-75
2023/04/11 06:10:22;;;;;;;7.63;1.48;;;;;;;9.63;100.00;100959.91;6100930;23;20116;-73
2023/04/11 06:12:48;;;;;;;9.55;2.15;;;;;;;9.80;100.00;100957.13;6069038;23;20065;-74
2023/04/11 06:15:13;;;;;;;8.95;2.00;;;;;;;9.91;100.00;100968.00;6094369;23;20729;-75
2023/04/11 06:17:39;;;;;;;8.48;1.35;;;;;;;10.07;100.00;100960.81;6094007;23;20041;-74
2023/04/11 06:20:09;;;;;;;10.52;1.70;;;;;;;9.98;100.00;100965.84;6093875;23;20142;-73
2023/04/11 06:22:35;;;;;;;7.28;1.60;;;;;;;9.94;100.00;100962.53;6094855;23;20045;-73
2023/04/11 06:25:01;;;;;;;19.23;3.08;;;;;;;10.23;99.45;100965.25;6094908;23;20018;-73
2023/04/11 06:27:26;;;;;;;9.13;1.65;;;;;;;10.45;98.61;100970.19;6092401;23;20101;-74
2023/04/11 06:29:52;;;;;;;7.60;1.67;;;;;;;10.79;95.14;100964.50;6095168;23;20061;-74
2023/04/11 06:32:18;;;;;;;10.93;1.98;;;;;;;10.75;93.45;100970.97;6070805;23;20014;-74
2023/04/11 06:34:44;;;;;;;9.43;1.75;;;;;;;10.92;93.10;100967.22;6100895;23;20024;-75
2023/04/11 06:37:10;;;;;;;13.43;2.22;;;;;;;11.14;91.51;100961.38;6098872;23;20685;-74
2023/04/11 06:39:35;;;;;;;8.88;1.88;;;;;;;10.95;91.35;100971.53;6094585;23;20037;-74
2023/04/11 06:42:02;;;;;;;13.75;2.42;;;;;;;11.89;86.21;100977.88;6071557;23;20020;-74
2023/04/11 06:44:30;;;;;;;4.65;2.03;;;;;;;11.26;88.58;100981.13;6068313;23;20083;-74
2023/04/11 06:46:57;;;;;;;7.32;1.75;;;;;;;11.47;88.85;100974.38;6095055;23;20014;-74
2023/04/11 06:49:30;;;;;;;9.23;2.53;;;;;;;11.53;91.02;100975.78;6093584;23;20014;-73
2023/04/11 06:51:56;;;;;;;7.15;2.15;;;;;;;11.87;87.90;100975.31;6092798;23;20010;-73
2023/04/11 06:54:22;;;;;;;11.73;1.92;;;;;;;12.07;85.26;100975.81;6107908;23;20017;-73
2023/04/11 06:56:50;;;;;;;11.90;2.63;;;;;;;11.54;87.37;100991.72;6111633;23;20014;-73
2023/04/11 06:59:19;;;;;;;7.38;1.98;;;;;;;11.40;89.08;100984.63;6110635;23;20040;-73
2023/04/11 07:01:45;;;;;;;9.88;2.15;;;;;;;12.23;85.84;100995.19;6111504;23;20014;-74
2023/04/11 07:04:10;;;;;;;16.08;2.58;;;;;;;12.08;83.88;100993.56;6095838;23;20618;-75
2023/04/11 07:06:36;;;;;;;9.35;2.08;;;;;;;11.98;89.54;100998.66;6095920;23;20018;-73
2023/04/11 07:09:02;;;;;;;8.77;2.15;;;;;;;11.84;86.78;100991.53;6096533;23;20736;-74
2023/04/11 07:11:28;;;;;;;12.18;2.03;;;;;;;12.09;85.78;100993.44;6094191;23;20027;-73
2023/04/11 07:13:54;;;;;;;11.25;1.95;;;;;;;12.22;84.50;100997.97;6095527;23;20017;-73
2023/04/11 07:16:24;;;;;;;7.72;1.75;;;;;;;12.60;84.95;100996.22;6043596;23;20796;-73
2023/04/11 07:18:50;;;;;;;17.17;2.45;;;;;;;12.80;82.05;101000.19;6092970;23;20853;-75
2023/04/11 07:21:15;;;;;;;11.00;2.50;;;;;;;12.42;83.17;101003.69;6095501;23;20014;-73
2023/04/11 07:23:41;;;;;;;9.10;1.88;;;;;;;12.50;83.46;101000.50;6095357;23;20458;-73
2023/04/11 07:26:09;;;;;;;12.07;1.92;;;;;;;12.31;81.98;101000.03;6096190;23;20017;-73
2023/04/11 07:28:37;;;;;;;17.98;2.28;;;;;;;12.19;83.03;101002.56;6068373;23;20757;-73
2023/04/11 07:31:06;;;;;;;11.30;2.50;;;;;;;12.50;82.11;100992.47;6093747;23;20670;-74
2023/04/11 07:33:36;;;;;;;12.57;2.67;;;;;;;12.30;81.80;101001.84;6093299;23;20093;-73
2023/04/11 07:36:05;;;;;;;9.30;3.28;;;;;;;12.87;83.28;101004.13;6092282;23;20017;-73
2023/04/11 07:38:32;;;;;;;11.73;2.38;;;;;;;13.12;82.42;101003.22;6092597;23;20020;-73
2023/04/11 07:41:02;;;;;;;11.25;2.50;;;;;;;12.55;81.35;100990.31;6096326;23;20242;-73
2023/04/11 07:43:28;;;;;;;11.23;2.13;;;;;;;12.12;84.42;101014.63;6094064;23;20275;-72
2023/04/11 07:45:55;;;;;;;8.48;2.30;;;;;;;11.94;87.27;101010.50;6094416;23;20014;-73
2023/04/11 07:48:21;;;;;;;13.15;2.60;;;;;;;12.65;83.92;100998.53;6095390;23;20580;-74
2023/04/11 07:50:47;;;;;;;9.70;2.10;;;;;;;12.47;79.71;100981.09;6093481;23;20278;-72
2023/04/11 07:53:12;;;;;;;11.48;2.25;;;;;;;12.65;80.24;100998.53;6094757;23;20694;-74
2023/04/11 07:55:39;;;;;;;14.57;2.47;;;;;;;13.01;79.01;101008.50;6094176;23;20044;-74
2023/04/11 07:58:08;;;;;;;9.82;1.85;;;;;;;13.01;77.26;101003.16;6094683;23;20021;-74
2023/04/11 08:00:38;;;;;;;10.18;2.08;;;;;;;12.99;74.14;101021.13;6072458;23;20163;-73
2023/04/11 08:03:09;;;;;;;8.30;2.60;;;;;;;12.91;75.28;101023.50;6097964;23;20021;-74
2023/04/11 08:05:36;;;;;;;9.63;3.45;;;;;;;13.31;74.15;101034.94;6069891;23;20069;-74
2023/04/11 08:08:03;;;;;;;13.35;2.30;;;;;;;12.64;73.92;101036.97;6069336;23;20026;-73
2023/04/11 08:10:29;;;;;;;6.13;1.45;;;;;;;13.30;71.80;101021.66;6096037;23;20014;-73
2023/04/11 08:12:55;;;;;;;10.85;2.00;;;;;;;12.77;72.15;101035.16;6094390;23;20037;-73
2023/04/11 08:15:20;;;;;;;11.38;2.17;;;;;;;12.49;73.99;101030.00;6091257;23;20245;-73
2023/04/11 08:17:48;;;;;;;9.73;2.10;;;;;;;13.29;71.89;101034.19;6093616;23;20330;-73
2023/04/11 08:20:15;;;;;;;18.27;2.50;;;;;;;12.30;69.48;101046.41;6067624;23;20104;-72
2023/04/11 08:22:43;;;;;;;12.40;2.35;;;;;;;12.15;70.81;101043.00;6092171;23;20215;-73
2023/04/11 08:25:10;;;;;;;5.47;2.25;;;;;;;12.18;70.47;101046.28;6095324;23;20055;-74
2023/04/11 08:27:37;;;;;;;14.20;2.30;;;;;;;12.40;70.30;101047.53;6097027;23;20100;-73
2023/04/11 08:30:07;;;;;;;6.05;1.73;;;;;;;12.94;69.64;101048.22;6071857;23;20254;-73
2023/04/11 08:32:33;;;;;;;11.90;1.73;;;;;;;13.14;68.86;101048.63;6098242;23;20041;-74
2023/04/11 08:34:59;;;;;;;21.38;2.53;;;;;;;12.56;70.78;101064.25;6097705;23;20049;-74
2023/04/11 08:37:24;;;;;;;12.98;2.75;;;;;;;12.02;72.02;101066.13;6095697;23;20030;-72
2023/04/11 08:39:50;;;;;;;9.93;2.60;;;;;;;11.56;78.83;101069.09;6069270;23;20021;-74
2023/04/11 08:42:25;;;;;;;15.75;2.35;;;;;;;11.41;82.17;101065.56;6067581;23;20831;-74
2023/04/11 08:44:56;;;;;;;13.10;2.47;;;;;;;11.38;81.19;101081.78;6070426;23;20084;-73
2023/04/11 08:47:22;;;;;;;9.85;2.50;;;;;;;11.55;80.04;101070.91;6096098;23;20039;-74
2023/04/11 08:49:49;;;;;;;7.22;2.05;;;;;;;11.98;79.46;101080.66;6071674;23;20077;-74
2023/04/11 08:52:16;;;;;;;14.20;3.03;;;;;;;12.41;75.93;101078.66;6075343;23;20323;-74
2023/04/11 08:54:43;;;;;;;10.18;2.47;;;;;;;12.01;72.12;101084.00;6102227;23;20045;-74
2023/04/11 08:57:13;;;;;;;10.88;1.80;;;;;;;11.75;74.48;101085.66;6100627;23;20018;-74
2023/04/11 08:59:50;;;;;;;14.45;2.83;;;;;;;11.79;75.87;101089.81;6070952;23;20013;-75
2023/04/11 09:02:18;;;;;;;9.13;1.92;;;;;;;11.55;68.76;101097.63;6097738;23;20072;-75
2023/04/11 09:04:46;;;;;;;8.00;2.63;;;;;;;12.22;65.92;101083.53;6097022;23;20014;-75
2023/04/11 09:07:11;;;;;;;6.50;1.73;;;;;;;12.32;65.58;101081.97;6071409;23;20052;-74
2023/04/11 09:09:38;;;;;;;7.55;2.20;;;;;;;12.64;64.03;101093.16;6097796;23;20802;-74
2023/04/11 09:12:04;;;;;;;10.63;1.60;;;;;;;12.86;62.20;101090.72;6097313;23;20284;-74
2023/04/11 09:14:30;;;;;;;8.23;2.03;;;;;;;12.65;60.35;101085.03;6097406;23;20014;-74
2023/04/11 09:16:57;;;;;;;7.43;1.58;;;;;;;13.07;59.08;101096.41;6096005;23;20774;-74
2023/04/11 09:19:25;;;;;;;15.95;1.65;;;;;;;12.86;59.32;101093.41;6069979;23;20183;-72
2023/04/11 09:21:51;;;;;;;10.98;1.80;;;;;;;13.31;60.00;101080.47;6097276;23;20185;-75
2023/04/11 09:24:17;;;;;;;6.28;1.40;;;;;;;13.01;59.05;101080.78;6070620;23;20018;-73
2023/04/11 09:26:42;;;;;;;10.52;2.10;;;;;;;13.80;60.56;101105.56;6098873;23;20029;-73
2023/04/11 09:29:08;;;;;;;13.38;2.75;;;;;;;13.30;59.08;101097.50;6096591;23;20768;-73
2023/04/11 09:31:44;;;;;;;10.38;1.98;;;;;;;13.23;60.03;101090.00;6097259;23;20751;-74
2023/04/11 09:34:11;;;;;;;9.18;2.20;;;;;;;13.46;61.28;101087.44;6097347;23;20088;-73
2023/04/11 09:36:38;;;;;;;8.82;2.08;;;;;;;13.83;61.01;101087.44;6075556;23;20028;-75
2023/04/11 09:39:18;;;;;;;9.52;1.90;;;;;;;13.69;60.67;101090.25;6102664;23;20478;-73
2023/04/11 09:41:44;;;;;;;7.25;2.13;;;;;;;13.61;61.75;101092.66;6076454;23;20018;-73
2023/04/11 09:44:10;;;;;;;8.18;1.90;;;;;;;13.56;61.90;101095.66;6098105;23;20180;-75
2023/04/11 09:46:36;;;;;;;14.70;2.03;;;;;;;13.39;61.96;101077.25;6098874;23;20673;-76
2023/04/11 09:49:02;;;;;;;10.50;1.98;;;;;;;13.84;61.62;101083.78;6072002;23;20108;-74
2023/04/11 09:51:28;;;;;;;11.18;2.10;;;;;;;14.31;61.81;101089.25;6098499;23;20160;-75
2023/04/11 09:53:54;;;;;;;16.00;2.20;;;;;;;13.61;60.45;101084.63;6071259;23;20040;-74
2023/04/11 09:56:21;;;;;;;10.73;1.90;;;;;;;13.52;60.53;101096.00;6097541;23;20024;-75
2023/04/11 09:58:46;;;;;;;17.75;3.35;;;;;;;13.60;60.75;101104.31;6098870;23;20163;-75
2023/04/11 10:01:13;;;;;;;8.05;2.17;;;;;;;13.86;60.58;101102.44;6097269;23;20022;-76
2023/04/11 10:03:39;;;;;;;6.65;1.88;;;;;;;13.24;61.06;101100.59;6097263;23;20018;-75
2023/04/11 10:06:11;;;;;;;13.93;1.92;;;;;;;13.78;59.92;101113.72;6097693;23;20018;-73
2023/04/11 10:08:41;;;;;;;16.25;3.35;;;;;;;13.19;59.86;101103.56;6096818;23;20018;-74
2023/04/11 10:11:13;;;;;;;15.07;2.40;;;;;;;13.47;60.13;101107.03;6097310;23;20326;-73
2023/04/11 10:13:45;;;;;;;10.02;1.92;;;;;;;14.37;60.93;101095.03;6096631;23;20021;-75
2023/04/11 10:16:14;;;;;;;9.95;2.22;;;;;;;13.86;59.96;101118.53;6096415;23;20014;-73
2023/04/11 10:18:51;;;;;;;6.65;1.83;;;;;;;12.88;61.59;101120.91;6094399;23;20040;-74
2023/04/11 10:21:26;;;;;;;6.85;1.88;;;;;;;12.84;58.80;101119.41;6094784;23;20211;-73
2023/04/11 10:24:14;;;;;;;6.18;1.63;;;;;;;13.25;58.06;101102.31;6096138;23;20009;-73
2023/04/11 10:26:50;;;;;;;8.43;3.38;;;;;;;13.53;58.49;101114.63;6097190;23;20060;-74
2023/04/11 10:32:09;;;;;;;14.27;1.77;;;;;;;13.66;59.68;101114.63;6096326;23;20089;-74
2023/04/11 10:34:40;;;;;;;7.88;2.08;;;;;;;13.85;59.08;101127.53;6069977;23;20021;-74
2023/04/11 10:37:09;;;;;;;7.80;2.33;;;;;;;13.36;55.38;101118.50;6096625;23;20142;-74
2023/04/11 10:39:47;;;;;;;4.35;1.33;;;;;;;13.81;56.87;101124.22;6045025;23;20017;-75
2023/04/11 10:42:31;;;;;;;9.88;1.67;;;;;;;14.07;56.85;101124.16;6096625;23;20025;-74
2023/04/11 10:45:13;;;;;;;6.28;1.88;;;;;;;13.60;57.83;101131.09;6070567;23;20014;-73
2023/04/11 10:47:38;;;;;;;6.20;1.40;;;;;;;13.83;57.79;101116.91;6095151;23;20014;-75
2023/04/11 10:50:26;;;;;;;8.23;1.80;;;;;;;13.65;58.11;101124.44;6096887;23;20104;-73
2023/04/11 10:52:53;;;;;;;10.68;1.35;;;;;;;13.51;57.98;101119.25;6054086;23;20046;-73
2023/04/11 10:55:19;;;;;;;5.00;1.65;;;;;;;13.19;57.84;101137.53;6096769;23;20014;-72
2023/04/11 10:58:06;;;;;;;9.85;3.05;;;;;;;12.95;58.32;101134.72;6097164;23;20053;-74
2023/04/11 11:00:48;;;;;;;7.30;1.67;;;;;;;13.95;59.17;101131.25;6071733;23;20025;-74
2023/04/11 11:03:29;;;;;;;4.83;1.60;;;;;;;13.69;57.19;101131.31;6097132;23;20532;-74
2023/04/11 11:05:58;;;;;;;6.03;1.52;;;;;;;14.04;56.61;101132.41;6097644;23;20014;-72
2023/04/11 11:08:40;;;;;;;10.15;2.20;;;;;;;14.20;56.81;101133.84;6095505;23;20017;-73
2023/04/11 11:11:09;;;;;;;12.43;2.90;;;;;;;13.76;52.05;101129.06;6097764;23;20018;-73
2023/04/11 11:13:54;;;;;;;4.68;1.30;;;;;;;13.81;52.52;101132.28;6098335;23;20053;-72
2023/04/11 11:16:24;;;;;;;1.70;0.73;;;;;;;13.60;51.79;101140.00;6095889;23;20010;-73
2023/04/11 11:18:52;;;;;;;5.32;1.15;;;;;;;14.10;50.13;101134.63;6097581;23;20018;-73
2023/04/11 11:21:20;;;;;;;8.43;2.60;;;;;;;13.56;50.41;101140.34;6096737;23;20021;-72
2023/04/11 11:24:00;;;;;;;4.93;1.20;;;;;;;13.71;49.20;101148.16;6046031;23;20017;-73
2023/04/11 11:26:40;;;;;;;4.38;1.17;;;;;;;14.17;48.69;101152.84;6070186;23;20043;-73
2023/04/11 11:29:10;;;;;;;2.65;0.98;;;;;;;14.40;48.47;101150.28;6097938;23;20501;-73